Time;durP1;ratioP1;P1;durP2;ratioP2;P2;SDS_P1;SDS_P2;PMS_P1;PMS_P2;Temp;Humidity;BMP_temperature;BMP_pressure;BME280_temperature;BME280_humidity;BME280_pressure;Samples;Min_cycle;Max_cycle;Signal;HPM_P1;HPM_P2
2023/08/09 00:01:08;;;;;;;16.20;10.77;;;;;;;30.90;61.23;101008.50;5057369;28;71190;-43
2023/08/09 00:03:57;;;;;;;21.73;9.27;;;;;;;30.94;61.70;101004.31;5051535;28;65695;-41
2023/08/09 00:06:46;;;;;;;21.63;9.23;;;;;;;30.78;72.18;100995.81;5048037;28;71900;-41
2023/08/09 00:09:36;;;;;;;21.30;9.05;;;;;;;30.79;74.07;100998.34;5055708;28;66600;-42
2023/08/09 00:12:26;;;;;;;21.60;10.52;;;;;;;30.88;76.51;101023.31;5051270;28;71561;-45
2023/08/09 00:15:15;;;;;;;29.08;12.23;;;;;;;30.94;77.33;101035.97;5054135;28;66665;-41
2023/08/09 00:18:05;;;;;;;26.90;13.32;;;;;;;30.82;77.52;101010.63;5045217;28;71461;-42
2023/08/09 00:20:54;;;;;;;36.60;14.25;;;;;;;30.95;77.65;101037.63;5055298;28;67167;-43
2023/08/09 00:23:45;;;;;;;41.10;14.63;;;;;;;31.00;79.01;101032.41;5052362;28;71119;-43
2023/08/09 00:26:34;;;;;;;36.67;14.05;;;;;;;31.07;79.10;101033.19;5056588;28;67536;-41
2023/08/09 00:29:23;;;;;;;31.98;13.68;;;;;;;31.08;80.34;101037.56;5053485;28;71201;-42
2023/08/09 00:32:13;;;;;;;29.23;14.52;;;;;;;31.01;79.39;101028.66;5056398;28;67171;-41
2023/08/09 00:35:03;;;;;;;21.20;11.68;;;;;;;30.98;79.21;101015.56;5056779;28;70369;-40
2023/08/09 00:37:52;;;;;;;20.35;10.73;;;;;;;31.09;79.18;101041.94;5051951;28;67328;-43
2023/08/09 00:40:43;;;;;;;14.85;9.65;;;;;;;31.11;79.15;101045.25;5056386;28;71061;-41
2023/08/09 00:43:33;;;;;;;14.63;9.13;;;;;;;31.08;78.72;101051.09;5052680;28;67169;-40
2023/08/09 00:46:23;;;;;;;12.93;10.40;;;;;;;31.12;78.67;101051.50;5045104;28;70977;-42
2023/08/09 00:49:16;;;;;;;14.48;9.52;;;;;;;31.15;78.36;101070.88;5055016;28;43085;-42
2023/08/09 00:52:06;;;;;;;23.05;10.15;;;;;;;31.32;73.47;101070.34;5052222;28;71417;-44
2023/08/09 00:54:56;;;;;;;14.43;8.43;;;;;;;31.36;72.48;101075.13;5053566;28;67232;-43
2023/08/09 00:57:48;;;;;;;17.52;9.02;;;;;;;30.69;71.58;100957.34;5036178;28;71602;-45
2023/08/09 01:00:38;;;;;;;12.57;8.48;;;;;;;31.42;71.32;101076.13;5044389;28;66996;-44
2023/08/09 01:03:27;;;;;;;16.30;8.68;;;;;;;31.46;70.67;101069.25;5054326;28;70649;-44
2023/08/09 01:06:31;;;;;;;12.65;8.00;;;;;;;31.52;70.07;101081.91;5059779;28;67397;-44
2023/08/09 01:09:47;;;;;;;13.60;7.82;;;;;;;31.44;70.54;101087.59;5052870;28;70181;-44
2023/08/09 01:12:43;;;;;;;18.15;7.82;;;;;;;31.56;69.77;101083.13;5054137;28;67239;-43
2023/08/09 01:15:34;;;;;;;12.10;7.32;;;;;;;31.61;69.47;101083.28;5062597;28;71244;-43
2023/08/09 01:18:24;;;;;;;10.10;7.03;;;;;;;31.65;69.33;101093.69;5057069;28;67149;-43
2023/08/09 01:21:15;;;;;;;10.80;6.97;;;;;;;31.64;69.12;101081.19;5061540;28;71144;-42
2023/08/09 01:24:08;;;;;;;9.90;6.93;;;;;;;31.23;68.88;101003.91;5058114;28;66600;-43
2023/08/09 01:26:57;;;;;;;12.23;6.40;;;;;;;31.57;68.75;101060.41;5056084;28;71302;-42
2023/08/09 01:29:47;;;;;;;9.18;6.65;;;;;;;31.75;68.85;101080.47;5059085;28;66262;-43
2023/08/09 01:32:38;;;;;;;8.48;6.47;;;;;;;31.76;68.36;101084.84;5062769;28;71089;-42
2023/08/09 01:35:34;;;;;;;7.90;6.65;;;;;;;31.78;68.28;101088.16;5064038;28;67314;-42
2023/08/09 01:38:35;;;;;;;7.97;6.07;;;;;;;31.79;67.94;101079.00;5050008;28;71482;-43
2023/08/09 01:41:24;;;;;;;12.73;6.43;;;;;;;31.83;68.02;101081.03;5041677;28;67185;-43
2023/08/09 01:44:16;;;;;;;6.03;5.47;;;;;;;31.78;67.94;101061.03;5058917;28;71410;-43
2023/08/09 01:47:07;;;;;;;13.32;5.75;;;;;;;31.85;67.78;101071.84;5053146;28;67290;-45
2023/08/09 01:49:57;;;;;;;7.97;5.10;;;;;;;31.54;67.62;101028.31;5048106;28;71136;-43
2023/08/09 01:52:47;;;;;;;6.10;5.30;;;;;;;31.93;67.23;101085.13;5062818;28;66659;-43
2023/08/09 01:55:38;;;;;;;10.40;5.53;;;;;;;31.91;67.47;101074.53;5063074;28;70717;-42
2023/08/09 01:58:28;;;;;;;10.80;5.22;;;;;;;31.95;67.27;101088.47;5040247;28;67315;-42
2023/08/09 02:01:17;;;;;;;7.88;5.53;;;;;;;31.98;67.34;101082.59;5044730;28;70446;-43
2023/08/09 02:04:09;;;;;;;7.53;5.53;;;;;;;32.01;67.20;101102.00;5060128;28;66900;-43
2023/08/09 02:06:58;;;;;;;5.55;4.90;;;;;;;31.99;66.99;101085.09;5060646;28;71122;-45
2023/08/09 02:09:48;;;;;;;5.88;4.90;;;;;;;32.04;67.12;101081.72;5043341;28;66584;-43
2023/08/09 02:12:39;;;;;;;5.18;3.97;;;;;;;32.05;66.71;101081.50;5056766;28;71233;-44
2023/08/09 02:15:28;;;;;;;4.93;4.22;;;;;;;32.07;66.74;101084.00;5042774;28;67234;-44
2023/08/09 02:18:18;;;;;;;4.72;4.32;;;;;;;32.10;66.64;101085.44;5059722;28;71177;-42
2023/08/09 02:21:07;;;;;;;6.05;3.90;;;;;;;31.65;66.64;100996.94;5061458;28;67178;-42
2023/08/09 02:23:57;;;;;;;4.95;4.15;;;;;;;32.01;66.73;101050.44;5051495;28;70440;-43
2023/08/09 02:26:46;;;;;;;4.03;3.63;;;;;;;32.18;66.47;101082.41;5062900;28;66116;-42
2023/08/09 02:29:36;;;;;;;4.57;3.83;;;;;;;32.16;66.23;101062.81;5058843;28;70104;-43
2023/08/09 02:32:26;;;;;;;6.60;3.70;;;;;;;32.20;66.15;101072.16;5040517;28;67238;-43
2023/08/09 02:35:16;;;;;;;3.63;3.20;;;;;;;31.69;66.11;100986.44;5045227;28;71174;-45
2023/08/09 02:38:05;;;;;;;4.40;3.35;;;;;;;32.26;65.92;101079.38;5060179;28;66430;-42
2023/08/09 02:40:56;;;;;;;6.85;3.92;;;;;;;32.29;65.93;101073.53;5045962;28;71106;-43
2023/08/09 02:43:45;;;;;;;7.13;3.50;;;;;;;32.31;65.80;101076.84;5054528;28;67255;-44
2023/08/09 02:46:35;;;;;;;3.88;3.42;;;;;;;32.35;65.65;101071.81;5041233;28;70525;-42
2023/08/09 02:49:24;;;;;;;8.02;3.30;;;;;;;32.37;65.43;101064.25;5054538;28;66361;-43
2023/08/09 02:52:14;;;;;;;6.30;3.30;;;;;;;32.27;65.55;101048.50;5044875;28;71210;-43
2023/08/09 02:55:06;;;;;;;6.32;3.53;;;;;;;32.41;65.25;101057.31;5048030;28;66745;-44
2023/08/09 02:57:55;;;;;;;3.65;3.30;;;;;;;32.38;65.26;101047.75;5048195;28;71125;-43
2023/08/09 03:00:45;;;;;;;7.00;3.13;;;;;;;32.45;65.25;101048.47;5059804;28;68022;-42
2023/08/09 03:03:36;;;;;;;7.60;3.22;;;;;;;32.43;64.92;101042.47;5059536;28;71436;-43
2023/08/09 03:06:26;;;;;;;5.72;4.10;;;;;;;32.49;64.93;101057.88;5049319;28;67221;-43
2023/08/09 03:09:16;;;;;;;5.15;3.20;;;;;;;32.53;65.01;101057.41;5060440;28;71345;-42
2023/08/09 03:12:05;;;;;;;4.82;2.90;;;;;;;32.56;64.81;101049.63;5058050;28;67190;-43
2023/08/09 03:14:55;;;;;;;4.05;2.80;;;;;;;32.43;64.84;101015.31;5058709;28;71405;-43
2023/08/09 03:17:44;;;;;;;3.30;3.00;;;;;;;32.61;64.72;101038.09;5045954;28;67281;-42
2023/08/09 03:20:35;;;;;;;4.47;3.15;;;;;;;32.63;64.57;101030.56;5055904;28;70437;-45
2023/08/09 03:23:25;;;;;;;5.55;2.83;;;;;;;32.66;64.61;101030.09;5042139;28;67031;-42
2023/08/09 03:26:15;;;;;;;4.43;3.03;;;;;;;32.69;64.55;101026.91;5059531;28;70287;-44
2023/08/09 03:29:05;;;;;;;4.95;3.22;;;;;;;32.66;64.58;101022.78;5057231;28;66174;-43
2023/08/09 03:31:57;;;;;;;3.53;2.47;;;;;;;32.71;64.59;101016.66;5053578;28;70916;-43
2023/08/09 03:34:46;;;;;;;5.93;2.65;;;;;;;32.64;64.22;101016.72;5052988;28;67270;-44
2023/08/09 03:37:36;;;;;;;4.13;3.10;;;;;;;32.77;64.31;101032.03;5049313;28;70799;-43
2023/08/09 03:40:25;;;;;;;3.65;2.53;;;;;;;32.77;64.43;101021.16;5058000;28;66667;-43
2023/08/09 03:43:15;;;;;;;5.28;2.50;;;;;;;32.79;64.40;101024.50;5055743;28;70411;-43
2023/08/09 03:46:05;;;;;;;6.47;2.80;;;;;;;32.77;64.03;101021.16;5057344;28;67057;-42
2023/08/09 03:48:55;;;;;;;5.95;3.05;;;;;;;32.84;63.92;101016.44;5046968;28;71122;-43
2023/08/09 03:51:46;;;;;;;;;;;;;;;32.52;65.07;101007.72;5056774;28;67267;-43
2023/08/09 03:54:37;;;;;;;3.15;2.65;;;;;;;32.83;63.90;101014.81;5056488;28;70443;-42
2023/08/09 03:57:30;;;;;;;5.63;2.72;;;;;;;32.82;63.76;100996.00;5055152;28;67612;-43
2023/08/09 04:00:22;;;;;;;5.13;2.70;;;;;;;32.91;63.79;100997.34;5047775;28;70935;-42
2023/08/09 04:02:53;;;;;;;4.32;2.47;;;;;;;32.94;63.99;101005.88;5055612;28;66726;-44
2023/08/09 04:05:23;;;;;;;4.40;2.50;;;;;;;32.82;64.05;100975.13;5050343;28;70285;-42
2023/08/09 04:07:54;;;;;;;3.88;2.50;;;;;;;33.00;63.84;101003.31;5058668;28;65693;-43
2023/08/09 04:10:25;;;;;;;2.88;2.53;;;;;;;33.00;64.05;100997.88;5049818;28;69724;-43
2023/08/09 04:12:56;;;;;;;3.35;2.60;;;;;;;33.00;63.71;100992.44;5057689;28;65508;-43
2023/08/09 04:15:29;;;;;;;4.45;2.63;;;;;;;33.02;63.71;100990.34;5052066;28;69215;-44
2023/08/09 04:17:59;;;;;;;3.63;2.95;;;;;;;33.01;63.85;100983.22;5051814;28;66426;-43
2023/08/09 04:20:31;;;;;;;5.72;3.00;;;;;;;33.01;63.62;100975.06;5057262;28;70310;-43
2023/08/09 04:23:02;;;;;;;4.63;2.53;;;;;;;33.04;63.54;100982.75;5049895;28;65341;-43
2023/08/09 04:25:34;;;;;;;3.88;2.85;;;;;;;32.98;63.37;100967.34;5052153;28;69842;-43
2023/08/09 04:28:04;;;;;;;2.92;2.20;;;;;;;32.90;63.48;100939.47;5054940;28;64405;-43
2023/08/09 04:30:36;;;;;;;2.80;1.97;;;;;;;33.09;63.30;100974.75;5053334;28;70089;-42
2023/08/09 04:33:06;;;;;;;3.90;2.28;;;;;;;32.98;63.43;100951.06;5040638;28;65878;-44
2023/08/09 04:35:38;;;;;;;5.88;2.67;;;;;;;33.08;63.10;100970.38;5056696;28;70909;-41
2023/08/09 04:38:08;;;;;;;3.23;2.17;;;;;;;33.07;63.32;100955.97;5052466;28;66219;-43
2023/08/09 04:40:40;;;;;;;4.00;2.38;;;;;;;33.11;63.20;100956.31;5050207;28;69901;-46
2023/08/09 04:43:11;;;;;;;5.70;2.57;;;;;;;33.05;63.08;100940.94;5048043;28;66676;-43
2023/08/09 04:45:42;;;;;;;4.75;2.60;;;;;;;33.19;62.92;100953.25;5056182;28;69928;-44
2023/08/09 04:48:17;;;;;;;3.05;2.45;;;;;;;32.67;62.96;100871.50;5048763;28;66184;-43
2023/08/09 04:50:48;;;;;;;3.67;2.30;;;;;;;33.22;62.79;100946.53;5050708;28;69933;-43
2023/08/09 04:53:22;;;;;;;3.17;2.40;;;;;;;33.20;62.97;100930.44;5050290;28;66656;-42
2023/08/09 04:55:53;;;;;;;;;;;;;;;32.94;63.55;100939.84;5056613;28;70276;-43
2023/08/09 04:58:23;;;;;;;5.10;2.45;;;;;;;32.81;62.80;100869.41;5057740;27;66716;-43
2023/08/09 05:00:55;;;;;;;4.97;2.25;;;;;;;33.29;62.62;100926.31;5052417;28;70153;-42
2023/08/09 05:03:26;;;;;;;3.15;2.70;;;;;;;33.15;63.06;100895.81;5053448;28;65749;-44
2023/08/09 05:05:57;;;;;;;2.67;2.13;;;;;;;33.18;62.98;100886.34;5047280;28;70827;-46
2023/08/09 05:08:28;;;;;;;12.27;2.33;;;;;;;33.35;62.50;100917.22;5052101;28;65587;-44
2023/08/09 05:10:58;;;;;;;3.70;2.28;;;;;;;33.36;62.48;100910.72;5051495;28;70444;-44
2023/08/09 05:13:29;;;;;;;4.33;2.73;;;;;;;33.37;62.39;100900.66;5052542;28;66926;-43
2023/08/09 05:16:01;;;;;;;3.10;2.30;;;;;;;32.98;62.47;100826.06;5053270;28;70853;-44
2023/08/09 05:18:33;;;;;;;2.60;2.22;;;;;;;33.13;62.22;100845.47;5052021;28;66310;-44
2023/08/09 05:21:05;;;;;;;2.50;2.00;;;;;;;33.42;62.43;100892.63;5056654;28;70277;-44
2023/08/09 05:23:36;;;;;;;;;;;;;;;33.12;63.22;100903.59;5056108;28;66034;-43
2023/08/09 05:26:06;;;;;;;3.15;2.20;;;;;;;33.42;62.61;100889.06;5050695;28;69851;-44
2023/08/09 05:28:37;;;;;;;5.05;2.72;;;;;;;33.47;62.10;100884.56;5058525;28;66567;-45
2023/08/09 05:31:08;;;;;;;9.00;2.65;;;;;;;33.41;62.29;100876.56;5054712;28;70143;-45
2023/08/09 05:33:39;;;;;;;3.23;2.57;;;;;;;33.47;62.12;100872.88;5054766;28;67586;-44
2023/08/09 05:36:09;;;;;;;3.25;2.60;;;;;;;33.51;61.98;100871.31;5055779;28;69868;-44
2023/08/09 05:38:40;;;;;;;4.47;2.78;;;;;;;33.28;61.91;100820.53;5055695;28;65849;-44
2023/08/09 05:41:12;;;;;;;3.80;2.92;;;;;;;33.42;62.04;100842.84;5057747;28;69726;-43
2023/08/09 05:43:42;;;;;;;;;;;;;;;33.27;62.67;100868.63;5060153;28;66269;-44
2023/08/09 05:46:13;;;;;;;5.93;2.42;;;;;;;33.57;61.91;100873.13;5051742;28;69457;-46
2023/08/09 05:48:44;;;;;;;4.07;2.88;;;;;;;33.61;61.79;100879.75;5055107;28;66230;-44
2023/08/09 05:51:15;;;;;;;2.72;2.40;;;;;;;33.46;61.89;100849.44;5058649;28;69313;-43
2023/08/09 05:53:45;;;;;;;3.30;2.63;;;;;;;33.61;61.52;100862.59;5059106;28;66071;-45
2023/08/09 05:56:18;;;;;;;3.65;2.83;;;;;;;33.54;61.92;100852.69;5048522;28;69153;-44
2023/08/09 05:58:48;;;;;;;4.43;3.20;;;;;;;33.65;61.65;100852.88;5051678;28;65844;-44
2023/08/09 06:01:20;;;;;;;4.03;3.25;;;;;;;33.69;61.64;100851.34;5059071;28;69989;-43
2023/08/09 06:03:51;;;;;;;4.60;2.83;;;;;;;33.70;61.57;100845.66;5061069;28;66316;-44
2023/08/09 06:06:23;;;;;;;5.77;3.70;;;;;;;33.71;61.47;100836.44;5054364;28;70256;-46
2023/08/09 06:08:53;;;;;;;3.05;2.85;;;;;;;33.73;61.58;100837.00;5058724;28;65523;-45
2023/08/09 06:11:24;;;;;;;3.27;2.97;;;;;;;33.68;60.96;100826.03;5057193;28;70005;-44
2023/08/09 06:13:55;;;;;;;4.72;2.97;;;;;;;33.76;61.21;100831.09;5056144;28;66159;-44
2023/08/09 06:16:25;;;;;;;3.10;2.60;;;;;;;33.57;61.25;100786.09;5054877;28;70393;-44
2023/08/09 06:18:56;;;;;;;4.38;3.08;;;;;;;33.83;61.45;100822.81;5058611;28;66232;-47
2023/08/09 06:21:27;;;;;;;3.17;2.60;;;;;;;33.72;61.33;100805.44;5023309;28;70130;-44
2023/08/09 06:23:58;;;;;;;3.45;2.95;;;;;;;33.89;61.08;100810.13;5061242;28;66628;-44
2023/08/09 06:26:28;;;;;;;3.73;2.80;;;;;;;33.90;61.01;100811.75;5055898;28;69568;-47
2023/08/09 06:29:01;;;;;;;3.33;3.03;;;;;;;33.93;61.20;100811.28;5059916;28;65609;-47
2023/08/09 06:31:32;;;;;;;3.17;2.75;;;;;;;33.84;60.56;100780.91;5049402;28;70547;-44
2023/08/09 06:34:03;;;;;;;7.05;3.10;;;;;;;33.92;61.14;100793.31;5049120;28;66248;-44
2023/08/09 06:36:34;;;;;;;4.90;3.72;;;;;;;33.98;60.81;100797.78;5048254;28;69383;-43
2023/08/09 06:39:05;;;;;;;6.03;3.50;;;;;;;34.01;60.77;100798.09;5056329;28;65193;-46
2023/08/09 06:41:36;;;;;;;3.20;2.90;;;;;;;34.02;60.78;100790.78;5041692;28;69880;-44
2023/08/09 06:44:06;;;;;;;5.70;2.80;;;;;;;34.06;60.81;100778.34;5054814;28;66041;-44
2023/08/09 06:46:37;;;;;;;4.13;3.40;;;;;;;34.06;60.64;100783.81;5051131;28;70834;-44
2023/08/09 06:49:08;;;;;;;5.63;3.42;;;;;;;34.10;60.58;100771.38;5051000;28;66547;-45
2023/08/09 06:51:39;;;;;;;5.20;3.50;;;;;;;34.12;60.35;100771.94;5053701;28;70373;-45
2023/08/09 06:54:09;;;;;;;3.97;3.40;;;;;;;34.12;60.32;100755.59;5045965;28;66026;-45
2023/08/09 06:56:41;;;;;;;4.50;3.50;;;;;;;34.17;60.33;100763.84;5048635;28;69229;-45
2023/08/09 06:59:12;;;;;;;4.57;3.67;;;;;;;34.19;60.57;100761.72;5050607;28;65532;-43
2023/08/09 07:01:47;;;;;;;7.07;3.92;;;;;;;34.10;60.13;100741.44;5054250;28;70256;-45
2023/08/09 07:04:19;;;;;;;5.72;4.00;;;;;;;34.25;60.00;100768.91;5052154;28;65649;-44
2023/08/09 07:06:49;;;;;;;7.63;3.88;;;;;;;34.24;60.07;100759.09;5052445;28;69943;-45
2023/08/09 07:09:20;;;;;;;4.32;4.03;;;;;;;34.26;60.27;100762.38;5054377;28;65922;-45
2023/08/09 07:11:51;;;;;;;6.07;4.43;;;;;;;34.11;60.27;100729.44;5055696;28;70125;-44
2023/08/09 07:14:21;;;;;;;5.47;4.20;;;;;;;34.37;59.71;100746.22;5052330;28;65106;-44
2023/08/09 07:16:52;;;;;;;4.75;4.32;;;;;;;34.20;60.14;100718.97;5053751;28;70242;-45
2023/08/09 07:19:23;;;;;;;5.10;4.60;;;;;;;34.28;60.10;100725.91;5051730;28;65824;-43
2023/08/09 07:21:54;;;;;;;4.57;4.20;;;;;;;34.41;60.01;100742.75;5059916;28;69408;-45
2023/08/09 07:24:25;;;;;;;5.30;4.45;;;;;;;34.44;59.94;100741.44;5046294;28;66748;-43
2023/08/09 07:26:55;;;;;;;6.47;4.60;;;;;;;34.47;59.68;100735.50;5045004;28;69791;-46
2023/08/09 07:29:26;;;;;;;6.45;4.70;;;;;;;34.34;59.79;100700.41;5059197;28;66802;-45
2023/08/09 07:31:57;;;;;;;4.77;4.33;;;;;;;34.47;59.72;100708.25;5058586;28;70115;-46
2023/08/09 07:34:28;;;;;;;5.53;4.95;;;;;;;34.54;59.72;100714.34;5047073;28;66674;-46
2023/08/09 07:37:00;;;;;;;5.65;5.13;;;;;;;34.38;59.74;100672.44;5054710;28;69582;-46
2023/08/09 07:39:31;;;;;;;5.30;4.95;;;;;;;34.53;59.53;100701.81;5046039;28;66731;-44
2023/08/09 07:42:02;;;;;;;5.40;4.90;;;;;;;34.60;59.32;100705.22;5049603;28;70481;-44
2023/08/09 07:44:33;;;;;;;;;;;;;;;34.36;59.45;100687.38;5058804;28;66685;-44
2023/08/09 07:47:03;;;;;;;5.28;4.47;;;;;;;34.62;59.07;100683.97;5051074;28;69556;-44
2023/08/09 07:49:34;;;;;;;5.65;5.10;;;;;;;34.66;58.91;100690.59;5054455;28;65414;-44
2023/08/09 07:52:06;;;;;;;7.20;5.28;;;;;;;34.70;59.37;100680.00;5054730;28;69533;-44
2023/08/09 07:54:36;;;;;;;7.18;4.60;;;;;;;34.66;58.56;100674.25;5053554;28;67544;-43
2023/08/09 07:57:09;;;;;;;6.07;4.60;;;;;;;34.72;59.28;100677.03;5048760;28;69324;-44
2023/08/09 07:59:39;;;;;;;4.95;4.40;;;;;;;34.44;59.20;100637.94;5050914;28;65659;-43
2023/08/09 08:02:10;;;;;;;5.55;5.03;;;;;;;34.74;59.10;100680.31;5052343;28;69853;-43
2023/08/09 08:04:41;;;;;;;5.63;5.22;;;;;;;34.78;59.20;100681.47;5051429;28;66702;-45
2023/08/09 08:07:13;;;;;;;7.70;5.20;;;;;;;34.81;58.78;100670.06;5054238;28;69633;-44
2023/08/09 08:09:45;;;;;;;6.00;5.47;;;;;;;34.70;58.91;100645.41;5069209;28;66404;-45
2023/08/09 08:12:15;;;;;;;;;;;;;;;34.58;59.13;100676.59;5055065;28;69652;-44
2023/08/09 08:14:54;;;;;;;7.13;5.72;;;;;;;34.82;58.70;100666.25;5052685;28;66881;-44
2023/08/09 08:17:25;;;;;;;6.28;5.78;;;;;;;34.80;58.43;100662.97;5050818;28;70491;-46
2023/08/09 08:19:55;;;;;;;6.23;5.63;;;;;;;34.86;58.40;100667.44;5055306;28;65410;-45
2023/08/09 08:22:28;;;;;;;6.38;5.88;;;;;;;34.86;58.75;100667.44;5049640;28;69071;-45
2023/08/09 08:24:59;;;;;;;7.00;6.40;;;;;;;34.83;58.77;100659.75;5054172;28;66346;-45
2023/08/09 08:27:34;;;;;;;6.30;5.80;;;;;;;34.80;58.19;100641.16;5052530;28;70528;-46
2023/08/09 08:30:08;;;;;;;7.32;6.63;;;;;;;34.88;58.58;100651.63;5056042;28;66525;-45
2023/08/09 08:32:39;;;;;;;6.75;6.10;;;;;;;34.96;58.70;100667.53;5052765;28;69561;-44
2023/08/09 08:35:11;;;;;;;6.97;5.37;;;;;;;34.95;58.45;100655.00;5056178;28;65760;-45
2023/08/09 08:37:43;;;;;;;6.15;5.75;;;;;;;34.98;58.53;100657.22;5056079;28;70236;-44
2023/08/09 08:40:17;;;;;;;7.00;6.50;;;;;;;34.97;57.90;100652.84;5059438;28;66414;-44
2023/08/09 08:42:49;;;;;;;14.32;7.35;;;;;;;34.99;58.13;100661.56;5057429;28;70198;-44
2023/08/09 08:45:20;;;;;;;7.88;7.28;;;;;;;34.91;57.78;100649.25;5057772;28;66166;-46
2023/08/09 08:47:51;;;;;;;8.63;7.80;;;;;;;35.00;58.17;100663.25;5057484;28;69247;-45
2023/08/09 08:50:25;;;;;;;9.05;8.27;;;;;;;35.01;57.76;100650.44;5055294;28;65969;-44
2023/08/09 08:52:56;;;;;;;7.75;7.22;;;;;;;35.02;58.43;100649.34;5054461;28;69515;-43
2023/08/09 08:55:26;;;;;;;8.82;7.95;;;;;;;34.86;57.94;100612.91;5057920;28;66483;-44
2023/08/09 08:57:58;;;;;;;8.98;8.38;;;;;;;35.04;57.84;100642.56;5053591;28;69992;-46
2023/08/09 09:00:29;;;;;;;10.25;8.65;;;;;;;35.04;57.93;100658.09;5058100;28;65440;-46
2023/08/09 09:03:00;;;;;;;10.85;8.88;;;;;;;35.05;58.03;100641.50;5058378;28;70254;-46
2023/08/09 09:05:32;;;;;;;9.75;9.05;;;;;;;35.01;58.42;100636.81;5059013;28;67642;-45
2023/08/09 09:08:03;;;;;;;9.70;8.88;;;;;;;35.05;57.88;100649.69;5058412;28;69723;-44
2023/08/09 09:10:34;;;;;;;10.00;9.18;;;;;;;35.05;58.08;100644.22;5056360;28;65112;-46
2023/08/09 09:13:05;;;;;;;10.95;10.10;;;;;;;35.06;58.37;100651.34;5058933;28;69781;-46
2023/08/09 09:15:39;;;;;;;10.23;9.48;;;;;;;34.99;57.89;100620.69;5057975;28;66701;-45
2023/08/09 09:18:12;;;;;;;13.90;9.95;;;;;;;34.56;57.93;100567.03;5057191;28;69899;-44
2023/08/09 09:20:43;;;;;;;10.90;9.90;;;;;;;35.07;58.34;100646.72;5058089;28;66199;-45
2023/08/09 09:23:31;;;;;;;9.93;9.13;;;;;;;34.63;57.60;100590.31;5058846;28;70474;-45
2023/08/09 09:26:10;;;;;;;11.40;10.30;;;;;;;34.49;57.56;100559.00;5060402;28;66304;-46
2023/08/09 09:28:48;;;;;;;13.65;10.43;;;;;;;35.06;57.51;100645.91;5063201;28;70573;-46
2023/08/09 09:31:19;;;;;;;10.20;9.40;;;;;;;35.11;58.27;100654.13;5061871;28;65674;-46
2023/08/09 09:33:51;;;;;;;14.68;9.77;;;;;;;34.87;58.31;100611.84;5063305;28;70097;-45
2023/08/09 09:36:22;;;;;;;11.23;9.77;;;;;;;35.11;58.04;100665.03;5059644;28;66476;-46
2023/08/09 09:38:53;;;;;;;15.60;10.00;;;;;;;35.08;58.22;100651.94;5063408;28;71074;-45
2023/08/09 09:41:24;;;;;;;10.48;9.52;;;;;;;34.93;57.69;100629.88;5061933;28;67068;-44
2023/08/09 09:43:55;;;;;;;13.57;9.83;;;;;;;35.09;58.46;100650.84;5053735;28;69759;-45
2023/08/09 09:46:27;;;;;;;10.48;9.52;;;;;;;35.08;58.39;100659.28;5056173;28;65488;-45
2023/08/09 09:49:06;;;;;;;9.88;8.98;;;;;;;34.69;57.78;100613.81;5053135;28;70763;-49
2023/08/09 09:51:36;;;;;;;10.38;9.43;;;;;;;35.08;58.00;100671.00;5051294;28;66401;-46
2023/08/09 09:54:07;;;;;;;9.82;9.13;;;;;;;34.98;57.55;100648.22;5057249;28;69338;-45
2023/08/09 09:56:38;;;;;;;10.57;9.57;;;;;;;34.86;57.65;100645.63;5054963;28;67361;-44
2023/08/09 09:59:09;;;;;;;;;;;;;;;34.82;58.36;100679.88;5058248;28;70229;-45
2023/08/09 10:01:44;;;;;;;10.40;9.55;;;;;;;34.84;57.79;100647.78;5056924;28;64404;-45
2023/08/09 10:04:17;;;;;;;10.40;9.52;;;;;;;35.02;58.42;100655.63;5056462;28;69675;-45
2023/08/09 10:06:49;;;;;;;10.38;9.48;;;;;;;35.05;58.26;100668.75;5059431;28;66493;-45
2023/08/09 10:09:20;;;;;;;10.35;9.55;;;;;;;35.08;58.37;100681.91;5056897;28;70302;-44
2023/08/09 10:11:53;;;;;;;14.70;9.77;;;;;;;35.02;58.52;100672.00;5059986;28;67037;-44
2023/08/09 10:14:26;;;;;;;9.95;9.13;;;;;;;35.07;58.04;100674.78;5060598;28;70151;-44
2023/08/09 10:16:59;;;;;;;10.10;9.23;;;;;;;35.04;58.19;100669.81;5058336;28;66541;-46
2023/08/09 10:19:44;;;;;;;14.15;10.05;;;;;;;35.05;58.47;100679.66;5059947;28;69978;-45
2023/08/09 10:22:19;;;;;;;9.13;8.43;;;;;;;34.46;58.69;100584.88;5054754;28;65968;-45
2023/08/09 10:24:51;;;;;;;9.82;8.93;;;;;;;35.04;58.27;100678.00;5050003;28;71658;-45
2023/08/09 10:27:51;;;;;;;9.75;8.93;;;;;;;34.95;58.44;100676.78;5053523;28;65911;-46
2023/08/09 10:30:28;;;;;;;9.82;9.13;;;;;;;34.90;58.55;100665.81;5055766;28;70625;-44
2023/08/09 10:32:59;;;;;;;10.55;9.65;;;;;;;35.01;58.87;100689.41;5054524;28;66188;-44
2023/08/09 10:35:48;;;;;;;10.30;9.27;;;;;;;34.88;59.48;100682.44;5055719;28;70951;-45
2023/08/09 10:38:32;;;;;;;9.10;8.23;;;;;;;34.96;59.10;100699.41;5048915;28;65795;-45
2023/08/09 10:41:16;;;;;;;9.70;8.80;;;;;;;34.87;58.97;100669.88;5053501;28;69978;-45
2023/08/09 10:43:47;;;;;;;9.20;8.50;;;;;;;34.76;59.17;100667.28;5054673;28;66465;-45
2023/08/09 10:46:25;;;;;;;9.27;8.38;;;;;;;34.44;58.48;100616.16;5052849;28;69301;-44
2023/08/09 10:49:00;;;;;;;9.52;8.48;;;;;;;34.47;58.75;100626.56;5053317;28;65199;-48
2023/08/09 10:51:33;;;;;;;9.63;8.68;;;;;;;34.92;59.00;100705.38;5053528;28;70188;-45
2023/08/09 10:54:08;;;;;;;9.70;8.65;;;;;;;34.87;59.07;100707.22;5052714;28;66462;-46
2023/08/09 10:56:42;;;;;;;9.27;8.38;;;;;;;34.91;58.85;100705.66;5058185;28;70228;-45
2023/08/09 10:59:24;;;;;;;8.85;8.10;;;;;;;34.58;60.95;100722.88;5050248;28;66527;-45
2023/08/09 11:01:55;;;;;;;9.07;8.02;;;;;;;34.37;61.45;100719.81;5043708;28;70270;-43
2023/08/09 11:04:26;;;;;;;14.50;9.17;;;;;;;34.06;63.19;100706.78;5057674;28;66408;-44
2023/08/09 11:06:58;;;;;;;16.90;8.63;;;;;;;34.14;64.43;100737.13;5054000;28;70040;-43
2023/08/09 11:09:32;;;;;;;16.05;10.00;;;;;;;34.15;65.13;100733.31;5059526;28;66238;-45
2023/08/09 11:12:06;;;;;;;16.33;10.75;;;;;;;34.17;64.77;100733.09;5058756;28;70004;-45
2023/08/09 11:14:37;;;;;;;12.15;10.98;;;;;;;34.12;64.44;100733.81;5056569;28;66017;-48
2023/08/09 11:17:13;;;;;;;13.48;11.55;;;;;;;34.06;65.20;100755.75;5057128;28;69325;-46
2023/08/09 11:19:44;;;;;;;14.40;11.23;;;;;;;33.93;65.72;100745.97;5057077;28;66558;-48
2023/08/09 11:22:16;;;;;;;12.75;10.20;;;;;;;33.88;65.78;100749.44;5050921;28;70314;-46
2023/08/09 11:24:47;;;;;;;19.88;12.45;;;;;;;34.15;63.59;100755.09;5057783;28;66164;-44
2023/08/09 11:27:17;;;;;;;17.92;11.27;;;;;;;34.31;63.00;100752.66;5056897;28;69355;-44
2023/08/09 11:29:48;;;;;;;30.60;10.88;;;;;;;34.36;62.81;100744.56;5057391;28;66256;-46
2023/08/09 11:32:31;;;;;;;57.67;12.05;;;;;;;34.37;64.28;100755.19;5056002;28;69540;-47
2023/08/09 11:35:03;;;;;;;57.60;12.02;;;;;;;34.36;63.29;100729.06;5045736;28;66201;-47
2023/08/09 11:37:35;;;;;;;65.72;11.70;;;;;;;34.50;62.75;100762.22;5061101;28;69896;-48
2023/08/09 11:40:06;;;;;;;48.17;11.70;;;;;;;34.55;62.50;100756.88;5049319;28;66570;-47
2023/08/09 11:42:37;;;;;;;21.40;10.77;;;;;;;34.29;65.26;100761.06;5051743;28;70700;-46
2023/08/09 11:45:09;;;;;;;32.35;12.40;;;;;;;34.36;64.15;100771.81;5052531;28;66025;-44
2023/08/09 11:47:39;;;;;;;;;;;;;;;34.15;65.78;100776.06;5056270;28;70513;-44
2023/08/09 11:50:25;;;;;;;29.42;10.77;;;;;;;34.33;64.02;100761.41;5049265;28;66048;-45
2023/08/09 11:52:56;;;;;;;21.98;10.25;;;;;;;34.53;63.11;100772.63;5058746;28;70400;-44
2023/08/09 11:55:27;;;;;;;24.70;10.43;;;;;;;34.52;62.87;100770.97;5050309;28;66512;-45
2023/08/09 11:57:58;;;;;;;15.35;9.93;;;;;;;34.53;63.03;100775.34;5056466;28;69346;-44
2023/08/09 12:00:30;;;;;;;24.25;10.35;;;;;;;34.26;63.75;100734.31;5052735;28;65198;-42
2023/08/09 12:03:05;;;;;;;11.10;9.17;;;;;;;34.03;66.76;100778.81;5059025;28;70032;-43
2023/08/09 12:05:36;;;;;;;14.82;9.38;;;;;;;33.72;67.87;100740.16;5050457;28;65304;-43
2023/08/09 12:08:11;;;;;;;9.80;8.90;;;;;;;33.87;68.98;100787.75;5047774;28;69362;-43
2023/08/09 12:10:42;;;;;;;11.57;8.57;;;;;;;33.68;69.09;100760.72;5057968;28;65916;-41
2023/08/09 12:13:13;;;;;;;9.52;7.95;;;;;;;33.68;70.13;100784.41;5058858;28;69058;-41